Nikko Maru — JD3180 — position and weather

sailwx.info

Track history (hours):
 
Tides and Currents Weather Stations Pressure Air Temp Water Temp Dewpoint Dewpoint Depression Visibility Wind Speed Wind Dir Waves Ship Positions

Nikko Maru

Last reported at 2017-Sep-24 03:01 UTC. Time now 2017-Sep-24 03:24 UTC.
Position N 34°36' E 135°23'.

Length 43 m; draft 4 m.

Type: Tug. MMSI: 431002379.

Date/timePositionNaut miles runAvg speedWind from/ knotsBaromVisibWave heightAir tempDewpointWater temp
2017-Sep-24 03:01N 34°36' E 135°23'1 1.5
2017-Sep-24 02:30N 34°36' E 135°22'2 3.8
2017-Sep-24 02:00N 34°37' E 135°25'0 0.9
2017-Sep-24 01:31N 34°36' E 135°24'2 3.9
2017-Sep-24 01:00N 34°37' E 135°22'0 0.7
2017-Sep-24 00:30N 34°37' E 135°22'4 8.5
2017-Sep-24 00:00N 34°33' E 135°26'1 1.2
2017-Sep-23 23:30N 34°33' E 135°27'0 0.0
2017-Sep-23 23:00N 34°33' E 135°27'0 0.0
2017-Sep-23 22:30N 34°33' E 135°27'0 0.0
2017-Sep-23 22:00N 34°33' E 135°27'0 0.0
2017-Sep-23 21:30N 34°33' E 135°27'0 0.0
2017-Sep-23 21:00N 34°33' E 135°27'0 0.0
2017-Sep-23 20:30N 34°33' E 135°27'0 0.0
2017-Sep-23 20:00N 34°33' E 135°27'1 0.0
2017-Sep-22 01:23N 34°33' E 135°25'0 0.1
2017-Sep-22 00:54N 34°33' E 135°25'1 2.0
2017-Sep-22 00:30N 34°33' E 135°25'4 6.8
2017-Sep-21 23:57N 34°33' E 135°20'0 1.0
2017-Sep-21 23:30N 34°33' E 135°21'5 9.6
2017-Sep-21 23:00N 34°33' E 135°27'0 0.0
2017-Sep-21 22:30N 34°33' E 135°27'0 0.0
2017-Sep-21 22:00N 34°33' E 135°27'0 0.0
2017-Sep-21 21:30N 34°33' E 135°27'0 0.0
2017-Sep-21 21:00N 34°33' E 135°27'0 0.0
2017-Sep-21 20:30N 34°33' E 135°27'0 0.0
2017-Sep-21 20:00N 34°33' E 135°27'0 0.0
2017-Sep-21 19:30N 34°33' E 135°27'0 0.0
2017-Sep-21 19:00N 34°33' E 135°27'0 0.0
2017-Sep-21 18:30N 34°33' E 135°27'0 0.0
2017-Sep-21 18:00N 34°33' E 135°27'0 0.0
2017-Sep-21 17:30N 34°33' E 135°27'0 0.0
2017-Sep-21 16:59N 34°33' E 135°27'0 0.0
2017-Sep-21 16:30N 34°33' E 135°27'0 0.0
2017-Sep-21 16:00N 34°33' E 135°27'0 0.0
2017-Sep-21 15:30N 34°33' E 135°27'0 0.0
2017-Sep-21 15:00N 34°33' E 135°27'0 0.0
2017-Sep-21 14:30N 34°33' E 135°27'0 0.0
2017-Sep-21 14:00N 34°33' E 135°27'0 0.0
2017-Sep-21 13:30N 34°33' E 135°27'0 0.0
2017-Sep-21 13:00N 34°33' E 135°27'0 0.0
2017-Sep-21 12:30N 34°33' E 135°27'0 0.0
2017-Sep-21 12:00N 34°33' E 135°27'0 0.0
2017-Sep-21 11:25N 34°33' E 135°27'0 0.0
2017-Sep-21 11:00N 34°33' E 135°27'0 0.0
2017-Sep-21 10:30N 34°33' E 135°27'0 0.0
2017-Sep-21 10:00N 34°33' E 135°27'0 0.0
2017-Sep-21 09:29N 34°33' E 135°27'0 0.0
2017-Sep-21 09:00N 34°33' E 135°27'0 0.0
2017-Sep-21 08:30N 34°33' E 135°27'0 0.0
2017-Sep-21 07:52N 34°33' E 135°27'0 0.0
2017-Sep-21 07:13N 34°33' E 135°27'0 0.0
2017-Sep-21 04:44N 34°33' E 135°27'0 0.0
2017-Sep-21 04:28N 34°33' E 135°27'0 0.0
2017-Sep-21 03:54N 34°33' E 135°27'2 2.3
2017-Sep-21 03:01N 34°34' E 135°24'4 2.3
2017-Sep-21 01:30N 34°33' E 135°20'0 0.1
2017-Sep-21 01:00N 34°33' E 135°20'0 0.8
2017-Sep-21 00:28N 34°33' E 135°20'2 4.0
2017-Sep-21 00:00N 34°31' E 135°20'5 9.3
2017-Sep-20 23:27N 34°26' E 135°19'0 0.6
2017-Sep-20 23:00N 34°26' E 135°19'0 0.9
2017-Sep-20 22:30N 34°26' E 135°19'1 2.7
2017-Sep-20 22:00N 34°28' E 135°19'1 2.5
2017-Sep-20 21:30N 34°29' E 135°19'612.7
2017-Sep-20 21:00N 34°33' E 135°25'2 3.3
2017-Sep-20 20:30N 34°33' E 135°27'0 0.0
2017-Sep-20 20:00N 34°33' E 135°27'0 0.0
2017-Sep-20 19:30N 34°33' E 135°27'0 0.0
2017-Sep-20 19:00N 34°33' E 135°27'0 0.0
2017-Sep-20 18:30N 34°33' E 135°27'0 0.0
2017-Sep-20 18:00N 34°33' E 135°27'0 0.0
2017-Sep-20 17:30N 34°33' E 135°27'0 0.0
2017-Sep-20 16:59N 34°33' E 135°27'0 0.0
2017-Sep-20 16:30N 34°33' E 135°27'0 0.0
2017-Sep-20 16:00N 34°33' E 135°27'0 0.0
2017-Sep-20 15:30N 34°33' E 135°27'0 0.0
2017-Sep-20 15:00N 34°33' E 135°27'0 0.0
2017-Sep-20 14:00N 34°33' E 135°27'0 0.0
2017-Sep-20 13:30N 34°33' E 135°27'0 0.0
2017-Sep-20 13:00N 34°33' E 135°27'0 0.0
2017-Sep-20 09:34N 34°33' E 135°27'0 0.1
2017-Sep-20 09:30N 34°33' E 135°27'510.7
2017-Sep-20 09:00N 34°38' E 135°23'2 3.2
2017-Sep-20 08:30N 34°39' E 135°24'1 2.9
2017-Sep-20 08:00N 34°39' E 135°26'0 0.0
2017-Sep-20 07:30N 34°39' E 135°26'0 0.0
2017-Sep-20 07:00N 34°39' E 135°26'0 0.0
2017-Sep-20 06:30N 34°39' E 135°26'2 4.8
2017-Sep-20 06:00N 34°38' E 135°24'0 0.7
2017-Sep-20 05:30N 34°37' E 135°24'2 3.1
2017-Sep-20 05:00N 34°38' E 135°23'4 8.8
2017-Sep-20 04:30N 34°33' E 135°24'2 3.5
2017-Sep-20 03:59N 34°33' E 135°27'0 0.0
2017-Sep-20 03:13N 34°33' E 135°27'0 0.0
2017-Sep-20 02:57N 34°33' E 135°27'0 0.0
2017-Sep-20 02:30N 34°33' E 135°27'0 0.0
2017-Sep-20 01:56N 34°33' E 135°27'0 0.0
2017-Sep-20 01:30N 34°33' E 135°27'0 0.0
2017-Sep-20 01:00N 34°33' E 135°27'0 0.0
2017-Sep-20 00:26N 34°33' E 135°27'0 0.0
2017-Sep-20 00:00N 34°33' E 135°27'0 0.0
2017-Sep-19 23:30N 34°33' E 135°27'0 0.0
2017-Sep-19 23:00N 34°33' E 135°27'0 0.0
2017-Sep-19 22:30N 34°33' E 135°27'0 0.0
2017-Sep-19 22:00N 34°33' E 135°27'0 0.0
2017-Sep-19 21:30N 34°33' E 135°27'0 0.0
2017-Sep-19 21:00N 34°33' E 135°27'0 0.0
2017-Sep-19 20:30N 34°33' E 135°27'0 0.0
2017-Sep-19 20:00N 34°33' E 135°27'0 0.0
2017-Sep-19 19:30N 34°33' E 135°27'0 0.0
2017-Sep-19 19:00N 34°33' E 135°27'0 0.0
2017-Sep-19 18:30N 34°33' E 135°27'0 0.0
2017-Sep-19 18:00N 34°33' E 135°27'0 0.0
2017-Sep-19 17:30N 34°33' E 135°27'0 0.0
2017-Sep-19 17:00N 34°33' E 135°27'0 0.0
2017-Sep-19 16:30N 34°33' E 135°27'0 0.0
2017-Sep-19 16:00N 34°33' E 135°27'0 0.0
2017-Sep-19 15:30N 34°33' E 135°27'0 0.0
2017-Sep-19 15:00N 34°33' E 135°27'0 0.0
2017-Sep-19 14:30N 34°33' E 135°27'0 0.0
2017-Sep-19 14:00N 34°33' E 135°27'0 0.0
2017-Sep-19 13:30N 34°33' E 135°27'0 0.0
2017-Sep-19 13:00N 34°33' E 135°27'0 0.0
2017-Sep-19 12:30N 34°33' E 135°27'0 0.0
2017-Sep-19 12:00N 34°33' E 135°27'0 0.0
2017-Sep-19 11:29N 34°33' E 135°27'0 0.0
2017-Sep-19 10:58N 34°33' E 135°27'0 0.0
2017-Sep-19 09:12N 34°33' E 135°27'1 2.8
2017-Sep-19 09:00N 34°33' E 135°26'510.6
2017-Sep-19 08:31N 34°39' E 135°24'0 0.9
2017-Sep-19 08:00N 34°39' E 135°24'0 0.6
2017-Sep-19 07:30N 34°39' E 135°24'1 2.6
2017-Sep-19 07:00N 34°39' E 135°26'0 0.0
2017-Sep-19 06:30N 34°39' E 135°26'0 0.0
2017-Sep-19 06:00N 34°39' E 135°26'0 0.0
2017-Sep-19 05:30N 34°39' E 135°26'0 0.0
2017-Sep-19 05:00N 34°39' E 135°26'1 2.7
2017-Sep-19 04:30N 34°39' E 135°24'0 0.7
2017-Sep-19 03:59N 34°39' E 135°24'1 3.0
2017-Sep-19 03:30N 34°38' E 135°23'0 0.8
2017-Sep-19 03:00N 34°37' E 135°23'0 0.4
2017-Sep-19 02:30N 34°37' E 135°23'1 2.8
2017-Sep-19 02:00N 34°36' E 135°23'4 5.5
2017-Sep-19 01:15N 34°32' E 135°24'0 1.9
2017-Sep-19 00:59N 34°32' E 135°24'1 2.0
2017-Sep-19 00:30N 34°33' E 135°23'3 5.5
2017-Sep-19 00:00N 34°33' E 135°27'0 0.0
2017-Sep-18 23:30N 34°33' E 135°27'0 0.0
2017-Sep-18 21:15N 34°33' E 135°27'0 0.0
2017-Sep-18 20:43N 34°33' E 135°27'0 0.0
2017-Sep-18 20:27N 34°33' E 135°27'0 0.0
2017-Sep-18 19:56N 34°33' E 135°27'0 0.0
2017-Sep-18 19:30N 34°33' E 135°27'0 0.0
2017-Sep-18 19:00N 34°33' E 135°27'0 0.0
2017-Sep-18 18:30N 34°33' E 135°27'0 0.0
2017-Sep-18 18:00N 34°33' E 135°27'0 0.0
2017-Sep-18 17:29N 34°33' E 135°27'0 0.0
2017-Sep-18 17:00N 34°33' E 135°27'0 0.0
2017-Sep-18 16:26N 34°33' E 135°27'0 0.0
2017-Sep-18 16:00N 34°33' E 135°27'0 0.0
2017-Sep-18 15:30N 34°33' E 135°27'0 0.0
2017-Sep-18 15:00N 34°33' E 135°27'0 0.0
2017-Sep-18 14:30N 34°33' E 135°27'0 0.0
2017-Sep-18 14:00N 34°33' E 135°27'0 0.0
2017-Sep-18 13:29N 34°33' E 135°27'0 0.0
2017-Sep-18 13:00N 34°33' E 135°27'0 0.0
2017-Sep-18 12:29N 34°33' E 135°27'0 0.0
2017-Sep-18 09:22N 34°33' E 135°27'0 0.0
2017-Sep-18 06:07N 34°33' E 135°27'0 0.0
2017-Sep-18 05:59N 34°33' E 135°27'0 0.0
2017-Sep-18 05:17N 34°33' E 135°27'0 0.0
2017-Sep-18 04:53N 34°33' E 135°27'0 0.0
2017-Sep-18 01:52N 34°33' E 135°27'1 3.6
2017-Sep-18 01:30N 34°33' E 135°25'0 0.2
2017-Sep-18 01:00N 34°33' E 135°25'1 1.8
2017-Sep-18 00:30N 34°33' E 135°25'3 6.9
2017-Sep-18 00:00N 34°33' E 135°20'0 1.0
2017-Sep-17 23:30N 34°34' E 135°21'5 8.0
2017-Sep-17 22:55N 34°33' E 135°27'0 0.0
2017-Sep-17 22:28N 34°33' E 135°27'0 0.0
2017-Sep-17 22:00N 34°33' E 135°27'0 0.0
2017-Sep-17 21:29N 34°33' E 135°27'0 0.0
2017-Sep-17 20:56N 34°33' E 135°27'0 0.0
2017-Sep-17 20:29N 34°33' E 135°27'0 0.0
2017-Sep-17 20:00N 34°33' E 135°27'0 0.0
2017-Sep-17 19:28N 34°33' E 135°27'0 0.0
2017-Sep-17 19:00N 34°33' E 135°27'0 0.0
2017-Sep-17 18:29N 34°33' E 135°27'0 0.0
2017-Sep-17 17:57N 34°33' E 135°27'0 0.0
2017-Sep-17 17:26N 34°33' E 135°27'0 0.0
2017-Sep-17 17:00N 34°33' E 135°27'0 0.0
2017-Sep-17 16:30N 34°33' E 135°27'0 0.0
2017-Sep-17 15:59N 34°33' E 135°27'0 0.0
2017-Sep-17 15:29N 34°33' E 135°27'0 0.0
2017-Sep-17 14:59N 34°33' E 135°27'0 0.0
2017-Sep-17 14:28N 34°33' E 135°27'0 0.0
2017-Sep-17 13:57N 34°33' E 135°27'0 0.0
2017-Sep-17 13:30N 34°33' E 135°27'0 0.0
2017-Sep-17 12:37N 34°33' E 135°27'0 0.0
2017-Sep-17 12:16N 34°33' E 135°27'0 0.0
2017-Sep-17 11:58N 34°33' E 135°27'0 0.0
2017-Sep-17 11:30N 34°33' E 135°27'0 0.0
2017-Sep-17 11:00N 34°33' E 135°27'0 0.0
2017-Sep-17 10:30N 34°33' E 135°27'0 0.0
2017-Sep-17 09:54N 34°33' E 135°27'0 0.0
2017-Sep-17 09:30N 34°33' E 135°27'0 0.0
2017-Sep-17 09:00N 34°33' E 135°27'0 0.0
2017-Sep-17 08:30N 34°33' E 135°27'0 0.0
2017-Sep-17 08:00N 34°33' E 135°27'0 0.0
2017-Sep-17 07:30N 34°33' E 135°27'0 0.0
2017-Sep-17 07:00N 34°33' E 135°27'0 0.0
2017-Sep-17 06:30N 34°33' E 135°27'0 0.0
2017-Sep-17 06:00N 34°33' E 135°27'0 0.0
2017-Sep-17 05:29N 34°33' E 135°27'0 0.0
2017-Sep-17 05:00N 34°33' E 135°27'0 0.0
2017-Sep-17 04:30N 34°33' E 135°27'0 0.0
2017-Sep-17 04:00N 34°33' E 135°27'0 0.0
2017-Sep-17 03:30N 34°33' E 135°27'0 0.0
2017-Sep-17 03:00N 34°33' E 135°27'0 0.0
2017-Sep-17 02:29N 34°33' E 135°27'0 0.0
2017-Sep-17 01:58N 34°33' E 135°27'0 0.0
2017-Sep-17 01:30N 34°33' E 135°27'0 0.0
2017-Sep-17 01:00N 34°33' E 135°27'0 0.0
2017-Sep-17 00:30N 34°33' E 135°27'0 0.0
2017-Sep-16 23:59N 34°33' E 135°27'0 0.0
2017-Sep-16 23:30N 34°33' E 135°27'0 0.0
2017-Sep-16 23:00N 34°33' E 135°27'0 0.0
2017-Sep-16 22:30N 34°33' E 135°27'0 0.0
2017-Sep-16 22:00N 34°33' E 135°27'0 0.0
2017-Sep-16 21:30N 34°33' E 135°27'0 0.0
2017-Sep-16 21:00N 34°33' E 135°27'0 0.0
2017-Sep-16 20:30N 34°33' E 135°27'0 0.0
2017-Sep-16 20:00N 34°33' E 135°27'0 0.0
2017-Sep-16 19:30N 34°33' E 135°27'0 0.0
2017-Sep-16 19:00N 34°33' E 135°27'0 0.0
2017-Sep-16 18:30N 34°33' E 135°27'0 0.0
2017-Sep-16 18:00N 34°33' E 135°27'0 0.0
2017-Sep-16 17:30N 34°33' E 135°27'0 0.0
2017-Sep-16 17:00N 34°33' E 135°27'0 0.0
2017-Sep-16 16:30N 34°33' E 135°27'0 0.0
2017-Sep-16 16:00N 34°33' E 135°27'0 0.0
2017-Sep-16 15:30N 34°33' E 135°27'0 0.0
2017-Sep-16 15:00N 34°33' E 135°27'0 0.0
2017-Sep-16 14:30N 34°33' E 135°27'0 0.0
2017-Sep-16 14:00N 34°33' E 135°27'0 0.0
2017-Sep-16 13:30N 34°33' E 135°27'0 0.0
2017-Sep-16 13:00N 34°33' E 135°27'0 0.0
2017-Sep-16 12:30N 34°33' E 135°27'0 0.0
2017-Sep-16 12:00N 34°33' E 135°27'0 0.0
2017-Sep-16 11:30N 34°33' E 135°27'0 0.0
2017-Sep-16 11:00N 34°33' E 135°27'0 0.0
2017-Sep-16 10:30N 34°33' E 135°27'0 0.0
2017-Sep-16 10:00N 34°33' E 135°27'0 0.0
2017-Sep-16 09:30N 34°33' E 135°27'0 0.0
2017-Sep-16 08:57N 34°33' E 135°27'3 7.2
2017-Sep-16 08:30N 34°32' E 135°23'3 6.9
2017-Sep-16 08:00N 34°29' E 135°22'0 0.2
2017-Sep-16 07:29N 34°29' E 135°22'5 9.5
2017-Sep-16 07:00N 34°33' E 135°24'2 4.0
2017-Sep-16 06:29N 34°33' E 135°27'0 0.0
2017-Sep-16 06:00N 34°33' E 135°27'0 0.0
2017-Sep-16 05:30N 34°33' E 135°27'0 0.0
2017-Sep-16 04:58N 34°33' E 135°27'0 0.0
2017-Sep-16 04:25N 34°33' E 135°27'0 0.0
2017-Sep-16 04:00N 34°33' E 135°27'0 0.0
2017-Sep-16 03:30N 34°33' E 135°27'0 0.0
2017-Sep-16 03:00N 34°33' E 135°27'0 0.0
2017-Sep-16 02:30N 34°33' E 135°27'0 0.0
2017-Sep-16 01:49N 34°33' E 135°27'0 0.0
2017-Sep-16 01:27N 34°33' E 135°27'0 0.0
2017-Sep-16 01:00N 34°33' E 135°27'0 0.0
2017-Sep-16 00:30N 34°33' E 135°27'0 0.0
2017-Sep-16 00:00N 34°33' E 135°27'0 0.0
2017-Sep-15 23:30N 34°33' E 135°27'1 1.2
2017-Sep-15 22:58N 34°33' E 135°26'4 6.3
2017-Sep-15 22:23N 34°31' E 135°23'1 2.8
2017-Sep-15 22:00N 34°32' E 135°23'1 1.6
2017-Sep-15 21:30N 34°33' E 135°23'3 6.1
2017-Sep-15 21:00N 34°33' E 135°27'0 0.0
2017-Sep-15 20:30N 34°33' E 135°27'0 0.0
2017-Sep-15 20:00N 34°33' E 135°27'0 0.0
2017-Sep-15 19:30N 34°33' E 135°27'0 0.0
2017-Sep-15 19:00N 34°33' E 135°27'0 0.0
2017-Sep-15 18:30N 34°33' E 135°27'0 0.0
2017-Sep-15 17:59N 34°33' E 135°27'0 0.0
2017-Sep-15 16:59N 34°33' E 135°27'0 0.0
2017-Sep-15 16:30N 34°33' E 135°27'0 0.0
2017-Sep-15 16:00N 34°33' E 135°27'0 0.0
2017-Sep-15 15:30N 34°33' E 135°27'0 0.0
2017-Sep-15 15:00N 34°33' E 135°27'0 0.0
2017-Sep-15 14:29N 34°33' E 135°27'0 0.0
2017-Sep-15 14:00N 34°33' E 135°27'0 0.0
2017-Sep-15 13:30N 34°33' E 135°27'0 0.0
2017-Sep-15 13:00N 34°33' E 135°27'0 0.0
2017-Sep-15 12:30N 34°33' E 135°27'0 0.0
2017-Sep-15 12:00N 34°33' E 135°27'0 0.0
2017-Sep-15 11:30N 34°33' E 135°27'0 0.0
2017-Sep-15 10:57N 34°33' E 135°27'0 0.0
2017-Sep-15 00:14N 34°33' E 135°27'0 0.0
2017-Sep-14 23:53N 34°33' E 135°27'0 0.0
2017-Sep-14 23:30N 34°33' E 135°27'0 0.0
2017-Sep-14 23:00N 34°33' E 135°27'0 0.0
2017-Sep-14 22:30N 34°33' E 135°27'0 0.0
2017-Sep-14 22:00N 34°33' E 135°27'0 0.0
2017-Sep-14 21:30N 34°33' E 135°27'0 0.0
2017-Sep-14 21:00N 34°33' E 135°27'0 0.0
2017-Sep-14 20:30N 34°33' E 135°27'0 0.0
2017-Sep-14 20:00N 34°33' E 135°27'0 0.0
2017-Sep-14 19:30N 34°33' E 135°27'0 0.0
2017-Sep-14 19:00N 34°33' E 135°27'0 0.0
2017-Sep-14 18:30N 34°33' E 135°27'0 0.0
2017-Sep-14 18:00N 34°33' E 135°27'0 0.0
2017-Sep-14 17:30N 34°33' E 135°27'0 0.0
2017-Sep-14 17:00N 34°33' E 135°27'0 0.0
2017-Sep-14 16:30N 34°33' E 135°27'0 0.0
2017-Sep-14 15:59N 34°33' E 135°27'0 0.0
2017-Sep-14 15:30N 34°33' E 135°27'0 0.0
2017-Sep-14 15:00N 34°33' E 135°27'0 0.0
2017-Sep-14 14:30N 34°33' E 135°27'0 0.0
2017-Sep-14 14:00N 34°33' E 135°27'0 0.0
2017-Sep-14 13:30N 34°33' E 135°27'0 0.0
2017-Sep-14 13:00N 34°33' E 135°27'0 0.0
2017-Sep-14 12:30N 34°33' E 135°27'0 0.0
2017-Sep-14 12:00N 34°33' E 135°27'0 0.0
2017-Sep-14 11:30N 34°33' E 135°27'0 0.0
2017-Sep-14 10:59N 34°33' E 135°27'0 0.0
2017-Sep-14 10:24N 34°33' E 135°27'0 0.0
2017-Sep-14 09:58N 34°33' E 135°27'0 0.0
2017-Sep-14 09:16N 34°33' E 135°27'0 0.0
2017-Sep-14 08:57N 34°33' E 135°27'0 0.0
2017-Sep-14 08:27N 34°33' E 135°27'0 0.0
2017-Sep-14 06:30N 34°33' E 135°27'  
Track history (hours):
 
Tides and Currents Weather Stations Pressure Air Temp Water Temp Dewpoint Dewpoint Depression Visibility Wind Speed Wind Dir Waves Ship Positions

Nikko Maru

Last reported at 2017-Sep-24 03:01 UTC. Time now 2017-Sep-24 03:24 UTC.
Position N 34°36' E 135°23'.

Length 43 m; draft 4 m.

Type: Tug. MMSI: 431002379.

Date/timePositionNaut miles runAvg speedWind from/ knotsBaromVisibWave heightAir tempDewpointWater temp
2017-Sep-24 03:01N 34°36' E 135°23'1 1.5
2017-Sep-24 02:30N 34°36' E 135°22'2 3.8
2017-Sep-24 02:00N 34°37' E 135°25'0 0.9
2017-Sep-24 01:31N 34°36' E 135°24'2 3.9
2017-Sep-24 01:00N 34°37' E 135°22'0 0.7
2017-Sep-24 00:30N 34°37' E 135°22'4 8.5
2017-Sep-24 00:00N 34°33' E 135°26'1 1.2
2017-Sep-23 23:30N 34°33' E 135°27'0 0.0
2017-Sep-23 23:00N 34°33' E 135°27'0 0.0
2017-Sep-23 22:30N 34°33' E 135°27'0 0.0
2017-Sep-23 22:00N 34°33' E 135°27'0 0.0
2017-Sep-23 21:30N 34°33' E 135°27'0 0.0
2017-Sep-23 21:00N 34°33' E 135°27'0 0.0
2017-Sep-23 20:30N 34°33' E 135°27'0 0.0
2017-Sep-23 20:00N 34°33' E 135°27'1 0.0
2017-Sep-22 01:23N 34°33' E 135°25'0 0.1
2017-Sep-22 00:54N 34°33' E 135°25'1 2.0
2017-Sep-22 00:30N 34°33' E 135°25'4 6.8
2017-Sep-21 23:57N 34°33' E 135°20'0 1.0
2017-Sep-21 23:30N 34°33' E 135°21'5 9.6
2017-Sep-21 23:00N 34°33' E 135°27'0 0.0
2017-Sep-21 22:30N 34°33' E 135°27'0 0.0
2017-Sep-21 22:00N 34°33' E 135°27'0 0.0
2017-Sep-21 21:30N 34°33' E 135°27'0 0.0
2017-Sep-21 21:00N 34°33' E 135°27'0 0.0
2017-Sep-21 20:30N 34°33' E 135°27'0 0.0
2017-Sep-21 20:00N 34°33' E 135°27'0 0.0
2017-Sep-21 19:30N 34°33' E 135°27'0 0.0
2017-Sep-21 19:00N 34°33' E 135°27'0 0.0
2017-Sep-21 18:30N 34°33' E 135°27'0 0.0
2017-Sep-21 18:00N 34°33' E 135°27'0 0.0
2017-Sep-21 17:30N 34°33' E 135°27'0 0.0
2017-Sep-21 16:59N 34°33' E 135°27'0 0.0
2017-Sep-21 16:30N 34°33' E 135°27'0 0.0
2017-Sep-21 16:00N 34°33' E 135°27'0 0.0
2017-Sep-21 15:30N 34°33' E 135°27'0 0.0
2017-Sep-21 15:00N 34°33' E 135°27'0 0.0
2017-Sep-21 14:30N 34°33' E 135°27'0 0.0
2017-Sep-21 14:00N 34°33' E 135°27'0 0.0
2017-Sep-21 13:30N 34°33' E 135°27'0 0.0
2017-Sep-21 13:00N 34°33' E 135°27'0 0.0
2017-Sep-21 12:30N 34°33' E 135°27'0 0.0
2017-Sep-21 12:00N 34°33' E 135°27'0 0.0
2017-Sep-21 11:25N 34°33' E 135°27'0 0.0
2017-Sep-21 11:00N 34°33' E 135°27'0 0.0
2017-Sep-21 10:30N 34°33' E 135°27'0 0.0
2017-Sep-21 10:00N 34°33' E 135°27'0 0.0
2017-Sep-21 09:29N 34°33' E 135°27'0 0.0
2017-Sep-21 09:00N 34°33' E 135°27'0 0.0
2017-Sep-21 08:30N 34°33' E 135°27'0 0.0
2017-Sep-21 07:52N 34°33' E 135°27'0 0.0
2017-Sep-21 07:13N 34°33' E 135°27'0 0.0
2017-Sep-21 04:44N 34°33' E 135°27'0 0.0
2017-Sep-21 04:28N 34°33' E 135°27'0 0.0
2017-Sep-21 03:54N 34°33' E 135°27'2 2.3
2017-Sep-21 03:01N 34°34' E 135°24'4 2.3
2017-Sep-21 01:30N 34°33' E 135°20'0 0.1
2017-Sep-21 01:00N 34°33' E 135°20'0 0.8
2017-Sep-21 00:28N 34°33' E 135°20'2 4.0
2017-Sep-21 00:00N 34°31' E 135°20'5 9.3
2017-Sep-20 23:27N 34°26' E 135°19'0 0.6
2017-Sep-20 23:00N 34°26' E 135°19'0 0.9
2017-Sep-20 22:30N 34°26' E 135°19'1 2.7
2017-Sep-20 22:00N 34°28' E 135°19'1 2.5
2017-Sep-20 21:30N 34°29' E 135°19'612.7
2017-Sep-20 21:00N 34°33' E 135°25'2 3.3
2017-Sep-20 20:30N 34°33' E 135°27'0 0.0
2017-Sep-20 20:00N 34°33' E 135°27'0 0.0
2017-Sep-20 19:30N 34°33' E 135°27'0 0.0
2017-Sep-20 19:00N 34°33' E 135°27'0 0.0
2017-Sep-20 18:30N 34°33' E 135°27'0 0.0
2017-Sep-20 18:00N 34°33' E 135°27'0 0.0
2017-Sep-20 17:30N 34°33' E 135°27'0 0.0
2017-Sep-20 16:59N 34°33' E 135°27'0 0.0
2017-Sep-20 16:30N 34°33' E 135°27'0 0.0
2017-Sep-20 16:00N 34°33' E 135°27'0 0.0
2017-Sep-20 15:30N 34°33' E 135°27'0 0.0
2017-Sep-20 15:00N 34°33' E 135°27'0 0.0
2017-Sep-20 14:00N 34°33' E 135°27'0 0.0
2017-Sep-20 13:30N 34°33' E 135°27'0 0.0
2017-Sep-20 13:00N 34°33' E 135°27'0 0.0
2017-Sep-20 09:34N 34°33' E 135°27'0 0.1
2017-Sep-20 09:30N 34°33' E 135°27'510.7
2017-Sep-20 09:00N 34°38' E 135°23'2 3.2
2017-Sep-20 08:30N 34°39' E 135°24'1 2.9
2017-Sep-20 08:00N 34°39' E 135°26'0 0.0
2017-Sep-20 07:30N 34°39' E 135°26'0 0.0
2017-Sep-20 07:00N 34°39' E 135°26'0 0.0
2017-Sep-20 06:30N 34°39' E 135°26'2 4.8
2017-Sep-20 06:00N 34°38' E 135°24'0 0.7
2017-Sep-20 05:30N 34°37' E 135°24'2 3.1
2017-Sep-20 05:00N 34°38' E 135°23'4 8.8
2017-Sep-20 04:30N 34°33' E 135°24'2 3.5
2017-Sep-20 03:59N 34°33' E 135°27'0 0.0
2017-Sep-20 03:13N 34°33' E 135°27'0 0.0
2017-Sep-20 02:57N 34°33' E 135°27'0 0.0
2017-Sep-20 02:30N 34°33' E 135°27'0 0.0
2017-Sep-20 01:56N 34°33' E 135°27'0 0.0
2017-Sep-20 01:30N 34°33' E 135°27'0 0.0
2017-Sep-20 01:00N 34°33' E 135°27'0 0.0
2017-Sep-20 00:26N 34°33' E 135°27'0 0.0
2017-Sep-20 00:00N 34°33' E 135°27'0 0.0
2017-Sep-19 23:30N 34°33' E 135°27'0 0.0
2017-Sep-19 23:00N 34°33' E 135°27'0 0.0
2017-Sep-19 22:30N 34°33' E 135°27'0 0.0
2017-Sep-19 22:00N 34°33' E 135°27'0 0.0
2017-Sep-19 21:30N 34°33' E 135°27'0 0.0
2017-Sep-19 21:00N 34°33' E 135°27'0 0.0
2017-Sep-19 20:30N 34°33' E 135°27'0 0.0
2017-Sep-19 20:00N 34°33' E 135°27'0 0.0
2017-Sep-19 19:30N 34°33' E 135°27'0 0.0
2017-Sep-19 19:00N 34°33' E 135°27'0 0.0
2017-Sep-19 18:30N 34°33' E 135°27'0 0.0
2017-Sep-19 18:00N 34°33' E 135°27'0 0.0
2017-Sep-19 17:30N 34°33' E 135°27'0 0.0
2017-Sep-19 17:00N 34°33' E 135°27'0 0.0
2017-Sep-19 16:30N 34°33' E 135°27'0 0.0
2017-Sep-19 16:00N 34°33' E 135°27'0 0.0
2017-Sep-19 15:30N 34°33' E 135°27'0 0.0
2017-Sep-19 15:00N 34°33' E 135°27'0 0.0
2017-Sep-19 14:30N 34°33' E 135°27'0 0.0
2017-Sep-19 14:00N 34°33' E 135°27'0 0.0
2017-Sep-19 13:30N 34°33' E 135°27'0 0.0
2017-Sep-19 13:00N 34°33' E 135°27'0 0.0
2017-Sep-19 12:30N 34°33' E 135°27'0 0.0
2017-Sep-19 12:00N 34°33' E 135°27'0 0.0
2017-Sep-19 11:29N 34°33' E 135°27'0 0.0
2017-Sep-19 10:58N 34°33' E 135°27'0 0.0
2017-Sep-19 09:12N 34°33' E 135°27'1 2.8
2017-Sep-19 09:00N 34°33' E 135°26'510.6
2017-Sep-19 08:31N 34°39' E 135°24'0 0.9
2017-Sep-19 08:00N 34°39' E 135°24'0 0.6
2017-Sep-19 07:30N 34°39' E 135°24'1 2.6
2017-Sep-19 07:00N 34°39' E 135°26'0 0.0
2017-Sep-19 06:30N 34°39' E 135°26'0 0.0
2017-Sep-19 06:00N 34°39' E 135°26'0 0.0
2017-Sep-19 05:30N 34°39' E 135°26'0 0.0
2017-Sep-19 05:00N 34°39' E 135°26'1 2.7
2017-Sep-19 04:30N 34°39' E 135°24'0 0.7
2017-Sep-19 03:59N 34°39' E 135°24'1 3.0
2017-Sep-19 03:30N 34°38' E 135°23'0 0.8
2017-Sep-19 03:00N 34°37' E 135°23'0 0.4
2017-Sep-19 02:30N 34°37' E 135°23'1 2.8
2017-Sep-19 02:00N 34°36' E 135°23'4 5.5
2017-Sep-19 01:15N 34°32' E 135°24'0 1.9
2017-Sep-19 00:59N 34°32' E 135°24'1 2.0
2017-Sep-19 00:30N 34°33' E 135°23'3 5.5
2017-Sep-19 00:00N 34°33' E 135°27'0 0.0
2017-Sep-18 23:30N 34°33' E 135°27'0 0.0
2017-Sep-18 21:15N 34°33' E 135°27'0 0.0
2017-Sep-18 20:43N 34°33' E 135°27'0 0.0
2017-Sep-18 20:27N 34°33' E 135°27'0 0.0
2017-Sep-18 19:56N 34°33' E 135°27'0 0.0
2017-Sep-18 19:30N 34°33' E 135°27'0 0.0
2017-Sep-18 19:00N 34°33' E 135°27'0 0.0
2017-Sep-18 18:30N 34°33' E 135°27'0 0.0
2017-Sep-18 18:00N 34°33' E 135°27'0 0.0
2017-Sep-18 17:29N 34°33' E 135°27'0 0.0
2017-Sep-18 17:00N 34°33' E 135°27'0 0.0
2017-Sep-18 16:26N 34°33' E 135°27'0 0.0
2017-Sep-18 16:00N 34°33' E 135°27'0 0.0
2017-Sep-18 15:30N 34°33' E 135°27'0 0.0
2017-Sep-18 15:00N 34°33' E 135°27'0 0.0
2017-Sep-18 14:30N 34°33' E 135°27'0 0.0
2017-Sep-18 14:00N 34°33' E 135°27'0 0.0
2017-Sep-18 13:29N 34°33' E 135°27'0 0.0
2017-Sep-18 13:00N 34°33' E 135°27'0 0.0
2017-Sep-18 12:29N 34°33' E 135°27'0 0.0
2017-Sep-18 09:22N 34°33' E 135°27'0 0.0
2017-Sep-18 06:07N 34°33' E 135°27'0 0.0
2017-Sep-18 05:59N 34°33' E 135°27'0 0.0
2017-Sep-18 05:17N 34°33' E 135°27'0 0.0
2017-Sep-18 04:53N 34°33' E 135°27'0 0.0
2017-Sep-18 01:52N 34°33' E 135°27'1 3.6
2017-Sep-18 01:30N 34°33' E 135°25'0 0.2
2017-Sep-18 01:00N 34°33' E 135°25'1 1.8
2017-Sep-18 00:30N 34°33' E 135°25'3 6.9
2017-Sep-18 00:00N 34°33' E 135°20'0 1.0
2017-Sep-17 23:30N 34°34' E 135°21'5 8.0
2017-Sep-17 22:55N 34°33' E 135°27'0 0.0
2017-Sep-17 22:28N 34°33' E 135°27'0 0.0
2017-Sep-17 22:00N 34°33' E 135°27'0 0.0
2017-Sep-17 21:29N 34°33' E 135°27'0 0.0
2017-Sep-17 20:56N 34°33' E 135°27'0 0.0
2017-Sep-17 20:29N 34°33' E 135°27'0 0.0
2017-Sep-17 20:00N 34°33' E 135°27'0 0.0
2017-Sep-17 19:28N 34°33' E 135°27'0 0.0
2017-Sep-17 19:00N 34°33' E 135°27'0 0.0
2017-Sep-17 18:29N 34°33' E 135°27'0 0.0
2017-Sep-17 17:57N 34°33' E 135°27'0 0.0
2017-Sep-17 17:26N 34°33' E 135°27'0 0.0
2017-Sep-17 17:00N 34°33' E 135°27'0 0.0
2017-Sep-17 16:30N 34°33' E 135°27'0 0.0
2017-Sep-17 15:59N 34°33' E 135°27'0 0.0
2017-Sep-17 15:29N 34°33' E 135°27'0 0.0
2017-Sep-17 14:59N 34°33' E 135°27'0 0.0
2017-Sep-17 14:28N 34°33' E 135°27'0 0.0
2017-Sep-17 13:57N 34°33' E 135°27'0 0.0
2017-Sep-17 13:30N 34°33' E 135°27'0 0.0
2017-Sep-17 12:37N 34°33' E 135°27'0 0.0
2017-Sep-17 12:16N 34°33' E 135°27'0 0.0
2017-Sep-17 11:58N 34°33' E 135°27'0 0.0
2017-Sep-17 11:30N 34°33' E 135°27'0 0.0
2017-Sep-17 11:00N 34°33' E 135°27'0 0.0
2017-Sep-17 10:30N 34°33' E 135°27'0 0.0
2017-Sep-17 09:54N 34°33' E 135°27'0 0.0
2017-Sep-17 09:30N 34°33' E 135°27'0 0.0
2017-Sep-17 09:00N 34°33' E 135°27'0 0.0
2017-Sep-17 08:30N 34°33' E 135°27'0 0.0
2017-Sep-17 08:00N 34°33' E 135°27'0 0.0
2017-Sep-17 07:30N 34°33' E 135°27'0 0.0
2017-Sep-17 07:00N 34°33' E 135°27'0 0.0
2017-Sep-17 06:30N 34°33' E 135°27'0 0.0
2017-Sep-17 06:00N 34°33' E 135°27'0 0.0
2017-Sep-17 05:29N 34°33' E 135°27'0 0.0
2017-Sep-17 05:00N 34°33' E 135°27'0 0.0
2017-Sep-17 04:30N 34°33' E 135°27'0 0.0
2017-Sep-17 04:00N 34°33' E 135°27'0 0.0
2017-Sep-17 03:30N 34°33' E 135°27'0 0.0
2017-Sep-17 03:00N 34°33' E 135°27'0 0.0
2017-Sep-17 02:29N 34°33' E 135°27'0 0.0
2017-Sep-17 01:58N 34°33' E 135°27'0 0.0
2017-Sep-17 01:30N 34°33' E 135°27'0 0.0
2017-Sep-17 01:00N 34°33' E 135°27'0 0.0
2017-Sep-17 00:30N 34°33' E 135°27'0 0.0
2017-Sep-16 23:59N 34°33' E 135°27'0 0.0
2017-Sep-16 23:30N 34°33' E 135°27'0 0.0
2017-Sep-16 23:00N 34°33' E 135°27'0 0.0
2017-Sep-16 22:30N 34°33' E 135°27'0 0.0
2017-Sep-16 22:00N 34°33' E 135°27'0 0.0
2017-Sep-16 21:30N 34°33' E 135°27'0 0.0
2017-Sep-16 21:00N 34°33' E 135°27'0 0.0
2017-Sep-16 20:30N 34°33' E 135°27'0 0.0
2017-Sep-16 20:00N 34°33' E 135°27'0 0.0
2017-Sep-16 19:30N 34°33' E 135°27'0 0.0
2017-Sep-16 19:00N 34°33' E 135°27'0 0.0
2017-Sep-16 18:30N 34°33' E 135°27'0 0.0
2017-Sep-16 18:00N 34°33' E 135°27'0 0.0
2017-Sep-16 17:30N 34°33' E 135°27'0 0.0
2017-Sep-16 17:00N 34°33' E 135°27'0 0.0
2017-Sep-16 16:30N 34°33' E 135°27'0 0.0
2017-Sep-16 16:00N 34°33' E 135°27'0 0.0
2017-Sep-16 15:30N 34°33' E 135°27'0 0.0
2017-Sep-16 15:00N 34°33' E 135°27'0 0.0
2017-Sep-16 14:30N 34°33' E 135°27'0 0.0
2017-Sep-16 14:00N 34°33' E 135°27'0 0.0
2017-Sep-16 13:30N 34°33' E 135°27'0 0.0
2017-Sep-16 13:00N 34°33' E 135°27'0 0.0
2017-Sep-16 12:30N 34°33' E 135°27'0 0.0
2017-Sep-16 12:00N 34°33' E 135°27'0 0.0
2017-Sep-16 11:30N 34°33' E 135°27'0 0.0
2017-Sep-16 11:00N 34°33' E 135°27'0 0.0
2017-Sep-16 10:30N 34°33' E 135°27'0 0.0
2017-Sep-16 10:00N 34°33' E 135°27'0 0.0
2017-Sep-16 09:30N 34°33' E 135°27'0 0.0
2017-Sep-16 08:57N 34°33' E 135°27'3 7.2
2017-Sep-16 08:30N 34°32' E 135°23'3 6.9
2017-Sep-16 08:00N 34°29' E 135°22'0 0.2
2017-Sep-16 07:29N 34°29' E 135°22'5 9.5
2017-Sep-16 07:00N 34°33' E 135°24'2 4.0
2017-Sep-16 06:29N 34°33' E 135°27'0 0.0
2017-Sep-16 06:00N 34°33' E 135°27'0 0.0
2017-Sep-16 05:30N 34°33' E 135°27'0 0.0
2017-Sep-16 04:58N 34°33' E 135°27'0 0.0
2017-Sep-16 04:25N 34°33' E 135°27'0 0.0
2017-Sep-16 04:00N 34°33' E 135°27'0 0.0
2017-Sep-16 03:30N 34°33' E 135°27'0 0.0
2017-Sep-16 03:00N 34°33' E 135°27'0 0.0
2017-Sep-16 02:30N 34°33' E 135°27'0 0.0
2017-Sep-16 01:49N 34°33' E 135°27'0 0.0
2017-Sep-16 01:27N 34°33' E 135°27'0 0.0
2017-Sep-16 01:00N 34°33' E 135°27'0 0.0
2017-Sep-16 00:30N 34°33' E 135°27'0 0.0
2017-Sep-16 00:00N 34°33' E 135°27'0 0.0
2017-Sep-15 23:30N 34°33' E 135°27'1 1.2
2017-Sep-15 22:58N 34°33' E 135°26'4 6.3
2017-Sep-15 22:23N 34°31' E 135°23'1 2.8
2017-Sep-15 22:00N 34°32' E 135°23'1 1.6
2017-Sep-15 21:30N 34°33' E 135°23'3 6.1
2017-Sep-15 21:00N 34°33' E 135°27'0 0.0
2017-Sep-15 20:30N 34°33' E 135°27'0 0.0
2017-Sep-15 20:00N 34°33' E 135°27'0 0.0
2017-Sep-15 19:30N 34°33' E 135°27'0 0.0
2017-Sep-15 19:00N 34°33' E 135°27'0 0.0
2017-Sep-15 18:30N 34°33' E 135°27'0 0.0
2017-Sep-15 17:59N 34°33' E 135°27'0 0.0
2017-Sep-15 16:59N 34°33' E 135°27'0 0.0
2017-Sep-15 16:30N 34°33' E 135°27'0 0.0
2017-Sep-15 16:00N 34°33' E 135°27'0 0.0
2017-Sep-15 15:30N 34°33' E 135°27'0 0.0
2017-Sep-15 15:00N 34°33' E 135°27'0 0.0
2017-Sep-15 14:29N 34°33' E 135°27'0 0.0
2017-Sep-15 14:00N 34°33' E 135°27'0 0.0
2017-Sep-15 13:30N 34°33' E 135°27'0 0.0
2017-Sep-15 13:00N 34°33' E 135°27'0 0.0
2017-Sep-15 12:30N 34°33' E 135°27'0 0.0
2017-Sep-15 12:00N 34°33' E 135°27'0 0.0
2017-Sep-15 11:30N 34°33' E 135°27'0 0.0
2017-Sep-15 10:57N 34°33' E 135°27'0 0.0
2017-Sep-15 00:14N 34°33' E 135°27'0 0.0
2017-Sep-14 23:53N 34°33' E 135°27'0 0.0
2017-Sep-14 23:30N 34°33' E 135°27'0 0.0
2017-Sep-14 23:00N 34°33' E 135°27'0 0.0
2017-Sep-14 22:30N 34°33' E 135°27'0 0.0
2017-Sep-14 22:00N 34°33' E 135°27'0 0.0
2017-Sep-14 21:30N 34°33' E 135°27'0 0.0
2017-Sep-14 21:00N 34°33' E 135°27'0 0.0
2017-Sep-14 20:30N 34°33' E 135°27'0 0.0
2017-Sep-14 20:00N 34°33' E 135°27'0 0.0
2017-Sep-14 19:30N 34°33' E 135°27'0 0.0
2017-Sep-14 19:00N 34°33' E 135°27'0 0.0
2017-Sep-14 18:30N 34°33' E 135°27'0 0.0
2017-Sep-14 18:00N 34°33' E 135°27'0 0.0
2017-Sep-14 17:30N 34°33' E 135°27'0 0.0
2017-Sep-14 17:00N 34°33' E 135°27'0 0.0
2017-Sep-14 16:30N 34°33' E 135°27'0 0.0
2017-Sep-14 15:59N 34°33' E 135°27'0 0.0
2017-Sep-14 15:30N 34°33' E 135°27'0 0.0
2017-Sep-14 15:00N 34°33' E 135°27'0 0.0
2017-Sep-14 14:30N 34°33' E 135°27'0 0.0
2017-Sep-14 14:00N 34°33' E 135°27'0 0.0
2017-Sep-14 13:30N 34°33' E 135°27'0 0.0
2017-Sep-14 13:00N 34°33' E 135°27'0 0.0
2017-Sep-14 12:30N 34°33' E 135°27'0 0.0
2017-Sep-14 12:00N 34°33' E 135°27'0 0.0
2017-Sep-14 11:30N 34°33' E 135°27'0 0.0
2017-Sep-14 10:59N 34°33' E 135°27'0 0.0
2017-Sep-14 10:24N 34°33' E 135°27'0 0.0
2017-Sep-14 09:58N 34°33' E 135°27'0 0.0
2017-Sep-14 09:16N 34°33' E 135°27'0 0.0
2017-Sep-14 08:57N 34°33' E 135°27'0 0.0
2017-Sep-14 08:27N 34°33' E 135°27'0 0.0
2017-Sep-14 06:30N 34°33' E 135°27'  

Dump ship's entire track history